Time;durP1;ratioP1;P1;durP2;ratioP2;P2;SDS_P1;SDS_P2;PMS_P1;PMS_P2;Temp;Humidity;BMP_temperature;BMP_pressure;BME280_temperature;BME280_humidity;BME280_pressure;Samples;Min_cycle;Max_cycle;Signal;HPM_P1;HPM_P2
2024/01/26 00:02:17;;;;;;;12.95;7.95;;;;;;;14.18;79.19;102302.66;5053380;28;20040;-47
2024/01/26 00:04:42;;;;;;;15.32;8.23;;;;;;;13.67;81.18;102301.50;5053535;28;20523;-49
2024/01/26 00:07:09;;;;;;;13.52;8.00;;;;;;;14.18;79.10;102293.91;5052376;28;20033;-48
2024/01/26 00:09:34;;;;;;;14.82;8.55;;;;;;;14.33;78.86;102286.38;5053131;28;20045;-44
2024/01/26 00:12:00;;;;;;;16.02;8.32;;;;;;;14.24;78.28;102288.78;5052969;28;20071;-45
2024/01/26 00:14:25;;;;;;;15.02;8.32;;;;;;;14.54;77.70;102286.81;5053356;28;20033;-49
2024/01/26 00:16:50;;;;;;;14.27;8.38;;;;;;;14.32;78.11;102287.22;5052119;28;20040;-45
2024/01/26 00:19:15;;;;;;;14.05;8.27;;;;;;;14.09;79.30;102289.34;5052871;28;20040;-49
2024/01/26 00:21:41;;;;;;;16.75;8.50;;;;;;;14.06;79.59;102285.78;5052721;28;20040;-45
2024/01/26 00:24:06;;;;;;;15.65;8.90;;;;;;;13.89;80.10;102280.19;5052683;28;20560;-46
2024/01/26 00:26:32;;;;;;;15.45;8.85;;;;;;;14.60;77.69;102286.06;5052678;28;20029;-45
2024/01/26 00:28:57;;;;;;;15.80;9.30;;;;;;;14.42;79.00;102278.72;5052443;28;20082;-44
2024/01/26 00:31:22;;;;;;;13.75;8.70;;;;;;;13.88;79.49;102281.03;5053493;28;20025;-45
2024/01/26 00:33:48;;;;;;;15.63;9.00;;;;;;;14.14;79.15;102274.63;5053527;28;20086;-48
2024/01/26 00:36:13;;;;;;;17.08;9.23;;;;;;;14.25;79.70;102284.44;5052252;28;20091;-46
2024/01/26 00:38:40;;;;;;;16.48;9.25;;;;;;;14.29;79.61;102283.63;5052478;28;20037;-45
2024/01/26 00:41:06;;;;;;;17.48;8.85;;;;;;;14.46;78.82;102285.78;5048849;28;20033;-45
2024/01/26 00:43:31;;;;;;;15.90;8.70;;;;;;;14.58;78.33;102283.38;5046699;28;20082;-45
2024/01/26 00:45:57;;;;;;;17.63;9.30;;;;;;;14.35;78.92;102283.75;5050743;28;20439;-44
2024/01/26 00:48:22;;;;;;;14.18;8.52;;;;;;;14.51;78.81;102275.41;5052339;28;20040;-46
2024/01/26 00:50:50;;;;;;;15.50;8.25;;;;;;;14.39;79.02;102278.66;5052621;28;20037;-45
2024/01/26 00:53:16;;;;;;;15.55;8.38;;;;;;;14.75;77.78;102275.84;5051540;28;20425;-45
2024/01/26 00:55:41;;;;;;;14.55;8.25;;;;;;;14.25;80.23;102272.22;5052043;28;20036;-45
2024/01/26 00:58:07;;;;;;;16.00;8.40;;;;;;;14.48;79.19;102264.81;5051072;28;20381;-50
2024/01/26 01:00:32;;;;;;;14.43;8.40;;;;;;;14.36;79.50;102257.56;5052292;28;20025;-46
2024/01/26 01:02:58;;;;;;;16.25;8.55;;;;;;;14.70;78.26;102253.88;5051826;28;20127;-46
2024/01/26 01:05:24;;;;;;;16.30;8.10;;;;;;;14.77;78.07;102247.88;5051864;28;20491;-46
2024/01/26 01:07:50;;;;;;;14.63;8.10;;;;;;;14.77;78.52;102244.34;5050272;28;20525;-45
2024/01/26 01:10:16;;;;;;;12.88;7.63;;;;;;;14.76;78.17;102235.59;5049311;28;20037;-52
2024/01/26 01:12:42;;;;;;;13.93;7.10;;;;;;;14.90;77.70;102228.84;5051764;28;20097;-47
2024/01/26 01:15:11;;;;;;;14.55;7.18;;;;;;;14.69;78.36;102219.75;5051569;28;20033;-44
2024/01/26 01:17:42;;;;;;;12.63;7.30;;;;;;;14.94;77.85;102214.91;5050215;28;20033;-46
2024/01/26 01:20:08;;;;;;;12.90;7.05;;;;;;;14.93;77.61;102210.53;5051363;28;20459;-46
2024/01/26 01:22:35;;;;;;;11.80;6.55;;;;;;;14.85;78.06;102208.63;5051976;28;20029;-50
2024/01/26 01:25:00;;;;;;;13.90;6.80;;;;;;;14.74;78.47;102216.34;5051449;28;20415;-47
2024/01/26 01:27:26;;;;;;;13.02;6.43;;;;;;;14.52;79.17;102207.16;5051410;28;20033;-47
2024/01/26 01:29:51;;;;;;;10.70;6.22;;;;;;;14.86;78.68;102200.78;5051192;28;20090;-45
2024/01/26 01:32:16;;;;;;;12.05;6.20;;;;;;;14.65;78.90;102215.25;5051634;28;20041;-48
2024/01/26 01:34:43;;;;;;;12.18;6.40;;;;;;;14.61;79.25;102204.72;5051476;28;20041;-46
2024/01/26 01:37:08;;;;;;;10.43;6.20;;;;;;;14.86;78.27;102206.03;5050295;28;20037;-48
2024/01/26 01:39:34;;;;;;;12.43;6.32;;;;;;;14.85;78.36;102214.78;5051375;28;20051;-44
2024/01/26 01:41:59;;;;;;;10.95;6.00;;;;;;;14.96;78.23;102204.44;5047644;28;20041;-50
2024/01/26 01:44:24;;;;;;;10.00;5.80;;;;;;;15.09;77.52;102201.16;5051490;28;20036;-45
2024/01/26 01:46:50;;;;;;;11.00;6.57;;;;;;;14.90;78.11;102201.72;5050874;28;20491;-48
2024/01/26 01:49:15;;;;;;;14.68;6.38;;;;;;;14.98;77.22;102187.88;5051216;28;20106;-49
2024/01/26 01:51:45;;;;;;;11.05;6.40;;;;;;;15.12;77.17;102180.22;5051345;28;20041;-49
2024/01/26 01:54:12;;;;;;;13.93;6.75;;;;;;;14.98;77.74;102179.09;5051094;28;20033;-44
2024/01/26 01:56:41;;;;;;;11.27;6.20;;;;;;;14.75;78.60;102176.09;5050822;28;20041;-45
2024/01/26 01:59:08;;;;;;;14.35;6.78;;;;;;;14.91;77.93;102164.97;5051109;28;20033;-48
2024/01/26 02:01:34;;;;;;;10.80;6.47;;;;;;;14.82;78.25;102159.56;5051880;28;20570;-45
2024/01/26 02:04:02;;;;;;;12.32;6.55;;;;;;;15.00;77.90;102140.63;5051081;28;20033;-45
2024/01/26 02:06:28;;;;;;;12.60;7.03;;;;;;;14.87;78.06;102139.53;5049531;28;20033;-44
2024/01/26 02:08:56;;;;;;;13.23;7.03;;;;;;;14.88;78.16;102143.06;5066210;22;20059;-79
2024/01/26 02:11:23;;;;;;;12.25;6.70;;;;;;;15.18;77.29;102134.75;5087076;28;20033;-81
2024/01/26 02:13:48;;;;;;;11.63;6.78;;;;;;;15.00;78.10;102151.97;5088247;28;20048;-81
2024/01/26 02:16:13;;;;;;;11.55;7.35;;;;;;;15.20;77.12;102133.00;5087468;28;20028;-81
2024/01/26 02:18:45;;;;;;;12.35;6.78;;;;;;;15.09;77.54;102124.09;5104885;28;20043;-81
2024/01/26 02:21:17;;;;;;;11.50;7.00;;;;;;;15.37;76.65;102115.75;5105424;28;20036;-81
2024/01/26 02:23:45;;;;;;;12.50;7.22;;;;;;;15.12;76.88;102111.91;5112428;28;20090;-82
2024/01/26 02:26:20;;;;;;;13.20;6.80;;;;;;;15.13;76.67;102112.75;5113266;28;20036;-83
2024/01/26 02:28:48;;;;;;;14.32;7.72;;;;;;;15.19;76.51;102115.47;5110612;28;20036;-79
2024/01/26 02:31:13;;;;;;;12.52;7.70;;;;;;;15.02;76.62;102118.75;5104392;28;20376;-80
2024/01/26 02:33:39;;;;;;;14.20;7.63;;;;;;;15.08;77.38;102120.59;5094143;28;20122;-80
2024/01/26 02:36:31;;;;;;;11.57;7.20;;;;;;;14.93;76.81;102112.50;5093542;28;20044;-81
2024/01/26 02:38:56;;;;;;;13.20;7.90;;;;;;;15.03;77.20;102120.53;5094721;28;20493;-82
2024/01/26 02:41:21;;;;;;;12.95;7.85;;;;;;;15.02;77.04;102107.38;5092749;28;20071;-82
2024/01/26 02:43:47;;;;;;;14.82;8.68;;;;;;;15.00;77.37;102088.09;5093639;28;20035;-81
2024/01/26 02:46:15;;;;;;;16.30;8.57;;;;;;;15.02;77.21;102088.97;5095470;28;20132;-81
2024/01/26 02:48:45;;;;;;;17.23;8.38;;;;;;;14.98;77.94;102089.81;5093825;28;20038;-82
2024/01/26 02:51:11;;;;;;;14.73;8.85;;;;;;;15.03;77.60;102082.88;5092971;28;20120;-81
2024/01/26 02:53:42;;;;;;;18.77;10.60;;;;;;;14.91;78.01;102078.34;5094111;28;20060;-80
2024/01/26 02:56:10;;;;;;;16.20;10.23;;;;;;;14.84;78.65;102084.34;5093357;28;20035;-80
2024/01/26 02:58:39;;;;;;;18.10;10.45;;;;;;;15.10;77.94;102083.84;5095378;28;20028;-79
2024/01/26 03:01:07;;;;;;;18.10;11.02;;;;;;;15.10;78.26;102076.84;5098272;28;20434;-78
2024/01/26 03:03:33;;;;;;;18.27;11.27;;;;;;;14.96;78.27;102060.00;5095529;28;20032;-79
2024/01/26 03:05:58;;;;;;;16.67;10.80;;;;;;;15.13;77.66;102058.50;5094009;28;20107;-78
2024/01/26 03:08:23;;;;;;;17.58;10.65;;;;;;;15.36;77.38;102053.56;5093757;28;20526;-80
2024/01/26 03:10:52;;;;;;;17.42;11.10;;;;;;;15.03;78.45;102040.84;5095894;28;20052;-81
2024/01/26 03:13:18;;;;;;;19.75;11.30;;;;;;;14.70;80.22;102041.25;5096026;28;20374;-80
2024/01/26 03:15:49;;;;;;;16.58;10.93;;;;;;;14.97;79.94;102053.91;5094927;28;20042;-82
2024/01/26 03:18:15;;;;;;;20.23;11.85;;;;;;;14.89;80.33;102045.03;5093037;28;20715;-79
2024/01/26 03:20:40;;;;;;;19.15;12.43;;;;;;;14.88;80.10;102045.91;5093136;28;20566;-81
2024/01/26 03:23:09;;;;;;;22.63;12.95;;;;;;;14.81;80.45;102049.31;5094255;28;20039;-81
2024/01/26 03:25:34;;;;;;;20.63;12.30;;;;;;;15.18;79.20;102030.56;5093965;28;20062;-79
2024/01/26 03:27:59;;;;;;;24.17;13.20;;;;;;;15.42;77.29;102027.34;5091803;28;20028;-81
2024/01/26 03:30:28;;;;;;;21.02;13.55;;;;;;;15.20;78.20;102027.94;5091616;28;20066;-80
2024/01/26 03:32:54;;;;;;;21.75;12.88;;;;;;;15.05;78.17;102019.88;5092662;28;20101;-83
2024/01/26 03:35:20;;;;;;;24.67;13.18;;;;;;;15.22;78.77;102034.09;5095556;28;20036;-78
2024/01/26 03:37:45;;;;;;;24.33;14.13;;;;;;;15.00;79.37;102028.56;5096287;28;20040;-80
2024/01/26 03:40:13;;;;;;;22.98;14.13;;;;;;;15.13;78.48;102033.97;5105035;28;20134;-82
2024/01/26 03:42:42;;;;;;;23.67;14.05;;;;;;;15.11;79.60;102028.72;5110949;28;20032;-83
2024/01/26 03:45:08;;;;;;;22.58;13.50;;;;;;;15.03;79.70;102018.09;5096093;28;20397;-81
2024/01/26 03:47:33;;;;;;;24.15;14.27;;;;;;;15.33;78.16;102019.34;5094661;28;20127;-82
2024/01/26 03:50:04;;;;;;;24.85;14.27;;;;;;;15.24;78.15;101999.13;5094264;28;20032;-83
2024/01/26 03:52:29;;;;;;;24.83;13.98;;;;;;;15.24;79.02;101988.63;5093971;28;20040;-82
2024/01/26 03:54:54;;;;;;;24.70;14.75;;;;;;;15.39;77.86;101999.28;5094909;28;20524;-83
2024/01/26 03:57:20;;;;;;;23.52;14.35;;;;;;;15.01;78.94;101996.19;5097600;28;20036;-82
2024/01/26 03:59:45;;;;;;;24.33;14.75;;;;;;;15.06;79.09;101983.13;5098958;28;20055;-80
2024/01/26 04:02:12;;;;;;;21.42;14.57;;;;;;;15.15;78.99;101975.34;5092549;28;20043;-81
2024/01/26 04:04:37;;;;;;;24.88;14.98;;;;;;;14.80;80.41;101955.66;5094298;28;20107;-82
2024/01/26 04:07:02;;;;;;;24.10;14.18;;;;;;;15.20;78.94;101959.63;5092882;28;20093;-80
2024/01/26 04:09:31;;;;;;;21.52;13.88;;;;;;;14.98;79.82;101951.50;5095070;28;20032;-79
2024/01/26 04:11:56;;;;;;;21.25;13.68;;;;;;;14.97;80.01;101951.50;5098512;28;20040;-80
2024/01/26 04:14:21;;;;;;;22.15;13.50;;;;;;;15.05;79.21;101948.97;5094981;28;20086;-81
2024/01/26 04:16:47;;;;;;;20.10;13.52;;;;;;;15.03;79.75;101946.31;5093773;28;20032;-80
2024/01/26 04:19:15;;;;;;;23.95;13.55;;;;;;;15.05;79.19;101947.22;5098919;28;20063;-80
2024/01/26 04:21:49;;;;;;;24.23;14.15;;;;;;;15.30;79.31;101940.50;5098225;28;20036;-78
2024/01/26 04:24:18;;;;;;;22.65;13.23;;;;;;;15.01;79.63;101942.78;5097358;28;20100;-79
2024/01/26 04:26:46;;;;;;;20.80;13.88;;;;;;;14.78;81.15;101947.75;5103432;28;20036;-82
2024/01/26 04:29:12;;;;;;;22.30;14.00;;;;;;;14.94;80.93;101928.69;5106190;28;20462;-78
2024/01/26 04:31:41;;;;;;;25.33;14.80;;;;;;;15.06;80.05;101927.09;5101498;28;20035;-79
2024/01/26 04:34:10;;;;;;;25.75;14.73;;;;;;;15.11;80.23;101928.03;5101428;28;20044;-81
2024/01/26 04:36:45;;;;;;;25.60;15.20;;;;;;;14.51;81.62;101916.78;5099724;28;20024;-78
2024/01/26 04:39:11;;;;;;;25.30;15.48;;;;;;;14.77;81.71;101924.97;5096564;28;20103;-81
2024/01/26 04:41:37;;;;;;;24.70;14.73;;;;;;;14.99;81.03;101928.75;5097267;28;20123;-81
2024/01/26 04:44:02;;;;;;;25.33;15.23;;;;;;;14.63;82.83;101926.56;5094539;28;20059;-83
2024/01/26 04:46:31;;;;;;;25.75;15.30;;;;;;;14.90;82.54;101926.91;5094023;28;20037;-81
2024/01/26 04:48:56;;;;;;;26.17;15.73;;;;;;;14.77;82.12;101916.22;5092037;28;20112;-81
2024/01/26 04:51:21;;;;;;;25.75;15.38;;;;;;;14.75;82.62;101916.22;5094510;28;20500;-80
2024/01/26 04:53:47;;;;;;;26.40;15.38;;;;;;;14.66;83.37;101900.34;5092940;28;20257;-81
2024/01/26 04:56:12;;;;;;;25.75;16.02;;;;;;;14.77;83.23;101898.72;5093334;28;20158;-81
2024/01/26 04:58:40;;;;;;;25.50;16.10;;;;;;;14.94;82.34;101888.44;5094851;28;20051;-81
2024/01/26 05:01:06;;;;;;;29.23;16.33;;;;;;;15.00;81.85;101889.38;5092900;28;20484;-81
2024/01/26 05:03:32;;;;;;;29.95;15.77;;;;;;;14.95;81.40;101875.31;5096659;28;20070;-80
2024/01/26 05:05:57;;;;;;;24.17;15.00;;;;;;;14.88;82.61;101876.09;5094732;28;20032;-81
2024/01/26 05:08:28;;;;;;;23.55;15.27;;;;;;;15.04;82.40;101877.16;5097678;28;20461;-80
2024/01/26 05:10:54;;;;;;;23.80;15.10;;;;;;;14.95;82.10;101864.81;5094792;28;20043;-81
2024/01/26 05:13:19;;;;;;;24.42;15.55;;;;;;;14.92;82.55;101870.03;5097463;28;20032;-82
2024/01/26 05:15:47;;;;;;;23.38;14.57;;;;;;;15.16;81.19;101852.78;5097202;28;20028;-81
2024/01/26 05:18:13;;;;;;;23.25;13.98;;;;;;;14.64;83.38;101865.31;5098276;28;20424;-79
2024/01/26 05:20:41;;;;;;;20.50;13.57;;;;;;;15.01;82.02;101867.50;5098595;28;20051;-79
2024/01/26 05:23:09;;;;;;;20.80;13.93;;;;;;;14.78;83.39;101863.75;5097964;28;20032;-80
2024/01/26 05:25:35;;;;;;;21.13;14.38;;;;;;;14.38;84.50;101854.50;5095351;28;20062;-80
2024/01/26 05:28:00;;;;;;;24.20;15.27;;;;;;;14.30;86.09;101856.09;5094254;28;20036;-81
2024/01/26 05:30:28;;;;;;;26.40;15.60;;;;;;;14.77;83.80;101861.97;5094349;28;20546;-80
2024/01/26 05:33:01;;;;;;;21.67;14.30;;;;;;;14.86;84.17;101848.97;5093420;28;20075;-80
2024/01/26 05:35:32;;;;;;;23.73;14.35;;;;;;;14.92;83.61;101845.53;5092775;28;20043;-80
2024/01/26 05:38:00;;;;;;;24.63;14.43;;;;;;;14.56;84.88;101852.09;5092345;28;20036;-81
2024/01/26 05:40:25;;;;;;;25.55;14.43;;;;;;;14.27;85.36;101848.19;5092618;28;20031;-81
2024/01/26 05:42:51;;;;;;;22.83;14.25;;;;;;;14.76;84.34;101854.09;5094103;28;20040;-80
2024/01/26 05:45:19;;;;;;;24.55;14.82;;;;;;;14.57;85.02;101848.63;5093791;28;20138;-81
2024/01/26 05:47:47;;;;;;;21.38;14.02;;;;;;;14.67;85.28;101851.34;5093903;28;20586;-82
2024/01/26 05:50:14;;;;;;;21.65;14.10;;;;;;;14.47;86.14;101837.97;5092844;28;20082;-82
2024/01/26 05:52:40;;;;;;;22.27;13.70;;;;;;;14.32;85.88;101838.63;5092074;28;20036;-82
2024/01/26 05:55:07;;;;;;;19.38;13.68;;;;;;;14.14;86.18;101844.53;5090812;28;20393;-80
2024/01/26 05:57:32;;;;;;;22.00;13.27;;;;;;;14.47;86.10;101841.47;5092920;28;20111;-79
2024/01/26 05:59:57;;;;;;;20.63;12.90;;;;;;;14.53;85.83;101835.44;5091386;28;20570;-82
2024/01/26 06:02:23;;;;;;;18.83;12.45;;;;;;;14.46;85.62;101842.34;5093772;28;20486;-81
2024/01/26 06:04:48;;;;;;;18.13;11.68;;;;;;;14.19;86.11;101852.44;5093319;28;20036;-81
2024/01/26 06:07:13;;;;;;;18.60;12.45;;;;;;;14.42;87.00;101851.03;5092819;28;20024;-82
2024/01/26 06:09:39;;;;;;;21.15;13.15;;;;;;;14.10;87.60;101849.66;5092039;28;20097;-81
2024/01/26 06:12:05;;;;;;;20.23;13.05;;;;;;;14.72;85.64;101841.78;5092715;28;20032;-81
2024/01/26 06:14:30;;;;;;;18.63;12.55;;;;;;;14.16;86.70;101841.88;5092800;28;20511;-82
2024/01/26 06:16:56;;;;;;;21.75;13.27;;;;;;;14.31;86.27;101823.75;5094144;28;20056;-81
2024/01/26 06:19:24;;;;;;;20.80;12.73;;;;;;;14.04;87.02;101813.75;5095289;28;20024;-79
2024/01/26 06:21:50;;;;;;;21.08;13.25;;;;;;;14.17;86.83;101822.69;5097377;28;20109;-78
2024/01/26 06:24:15;;;;;;;22.50;12.88;;;;;;;14.44;86.14;101837.94;5099403;28;20032;-79
2024/01/26 06:26:40;;;;;;;21.13;13.80;;;;;;;14.25;87.47;101828.91;5099025;28;20060;-79
2024/01/26 06:29:06;;;;;;;21.40;14.07;;;;;;;14.64;86.24;101833.81;5099822;28;20058;-78
2024/01/26 06:31:34;;;;;;;23.27;13.93;;;;;;;14.63;85.42;101832.06;5100746;28;20498;-79
2024/01/26 06:33:59;;;;;;;24.73;14.07;;;;;;;14.27;87.43;101832.47;5097032;28;20095;-81
2024/01/26 06:36:24;;;;;;;24.35;14.32;;;;;;;14.35;86.76;101835.16;5097285;28;20056;-82
2024/01/26 06:38:50;;;;;;;24.90;15.02;;;;;;;14.22;87.24;101837.63;5093989;28;20064;-80
2024/01/26 06:41:15;;;;;;;25.63;14.90;;;;;;;14.29;87.12;101845.56;5096504;28;20032;-81
2024/01/26 06:43:51;;;;;;;20.95;13.90;;;;;;;13.74;88.09;101848.25;5101228;28;20028;-80
2024/01/26 06:46:23;;;;;;;20.60;12.50;;;;;;;14.22;89.19;101831.47;5096797;28;20040;-81
2024/01/26 06:48:49;;;;;;;20.13;11.75;;;;;;;14.26;87.55;101856.03;5110811;28;20032;-80
2024/01/26 06:51:15;;;;;;;17.75;11.02;;;;;;;14.35;88.20;101843.03;5111565;28;20120;-81
2024/01/26 06:53:40;;;;;;;18.70;10.10;;;;;;;14.22;88.93;101836.72;5109772;28;20036;-80
2024/01/26 06:56:09;;;;;;;16.35;10.18;;;;;;;14.64;87.65;101844.31;5102375;28;20492;-83
2024/01/26 06:58:34;;;;;;;18.10;9.50;;;;;;;14.27;88.20;101847.31;5093201;28;20036;-83
2024/01/26 07:01:00;;;;;;;16.20;9.15;;;;;;;14.76;88.17;101846.22;5093439;28;20095;-81
2024/01/26 07:03:28;;;;;;;15.10;9.55;;;;;;;14.46;87.96;101852.84;5091872;28;20122;-80
2024/01/26 07:05:54;;;;;;;17.92;9.30;;;;;;;14.45;87.42;101858.09;5092731;28;20071;-83
2024/01/26 07:08:19;;;;;;;16.25;9.05;;;;;;;14.64;87.09;101859.19;5092778;28;20035;-80
2024/01/26 07:10:45;;;;;;;15.02;8.77;;;;;;;14.57;87.75;101845.13;5091967;28;20090;-80
2024/01/26 07:13:14;;;;;;;14.90;8.38;;;;;;;14.64;88.05;101857.44;5092292;28;20028;-81
2024/01/26 07:15:42;;;;;;;15.75;8.55;;;;;;;14.55;87.77;101863.47;5093313;28;20036;-83
2024/01/26 07:18:07;;;;;;;12.43;7.85;;;;;;;14.45;87.85;101850.22;5095493;28;20123;-82
2024/01/26 07:20:33;;;;;;;13.18;7.78;;;;;;;14.50;87.70;101857.28;5093209;28;20060;-80
2024/01/26 07:22:58;;;;;;;11.18;6.28;;;;;;;14.12;88.16;101855.84;5091493;28;20036;-81
2024/01/26 07:25:24;;;;;;;12.85;6.80;;;;;;;14.17;88.77;101860.28;5093410;28;20079;-81
2024/01/26 07:27:49;;;;;;;12.95;6.20;;;;;;;14.29;88.05;101851.69;5093185;28;20165;-81
2024/01/26 07:30:17;;;;;;;14.13;5.63;;;;;;;14.40;87.77;101854.50;5103719;28;20040;-79
2024/01/26 07:33:13;;;;;;;13.45;5.32;;;;;;;14.23;88.22;101875.22;5109885;28;20089;-81
2024/01/26 07:35:39;;;;;;;14.20;5.30;;;;;;;14.47;86.77;101859.84;5108718;28;20020;-81
2024/01/26 07:38:35;;;;;;;16.48;5.90;;;;;;;14.60;85.37;101872.28;5110060;28;20058;-81
2024/01/26 07:41:29;;;;;;;15.63;6.28;;;;;;;14.00;88.62;101872.25;5111288;28;20040;-82
2024/01/26 07:43:54;;;;;;;17.95;5.95;;;;;;;14.45;86.47;101871.19;5109418;28;20052;-82
2024/01/26 07:46:19;;;;;;;17.25;5.90;;;;;;;14.33;86.26;101868.38;5112924;28;20024;-82
2024/01/26 07:49:15;;;;;;;16.52;5.45;;;;;;;14.26;86.15;101874.41;5110943;28;20032;-81
2024/01/26 07:51:41;;;;;;;15.40;6.03;;;;;;;13.99;86.87;101882.72;5109166;28;20580;-81
2024/01/26 07:54:09;;;;;;;15.98;6.03;;;;;;;14.10;86.34;101895.13;5108108;28;20044;-79
2024/01/26 07:59:14;;;;;;;19.35;6.63;;;;;;;14.13;86.02;101889.94;5077650;22;20055;-45
2024/01/26 08:01:39;;;;;;;18.27;6.25;;;;;;;13.86;87.19;101899.09;5070171;28;20411;-48
2024/01/26 08:04:04;;;;;;;22.48;6.60;;;;;;;13.88;87.48;101908.78;5073173;28;20047;-48
2024/01/26 08:06:30;;;;;;;19.35;5.75;;;;;;;14.26;86.13;101913.75;5073723;28;20032;-44
2024/01/26 08:08:56;;;;;;;16.48;4.50;;;;;;;13.85;87.23;101913.06;5073095;28;20028;-45
2024/01/26 08:11:21;;;;;;;17.10;4.40;;;;;;;13.91;87.55;101906.19;5073636;28;20181;-46
2024/01/26 08:13:46;;;;;;;19.60;3.60;;;;;;;13.59;88.11;101921.41;5073488;28;20044;-45
2024/01/26 08:16:18;;;;;;;14.38;3.15;;;;;;;13.42;87.77;101943.75;5072989;28;20043;-45
2024/01/26 08:18:43;;;;;;;15.93;3.90;;;;;;;13.40;88.28;101927.16;5072916;28;20037;-47
2024/01/26 08:21:10;;;;;;;16.70;3.58;;;;;;;13.50;88.50;101931.69;5072344;28;20060;-44
2024/01/26 08:23:36;;;;;;;20.08;4.20;;;;;;;13.53;87.77;101925.63;5072939;28;20406;-46
2024/01/26 08:26:02;;;;;;;21.73;4.03;;;;;;;13.87;86.61;101941.09;5072273;28;20039;-45
2024/01/26 08:28:27;;;;;;;21.55;4.18;;;;;;;13.64;87.81;101963.41;5072348;28;20032;-44
2024/01/26 08:30:52;;;;;;;17.90;4.05;;;;;;;12.99;89.60;102005.72;5072080;28;20028;-46
2024/01/26 08:33:18;;;;;;;16.08;3.40;;;;;;;13.27;87.32;102014.19;5072483;28;20041;-44
2024/01/26 08:35:43;;;;;;;21.13;4.03;;;;;;;13.15;87.24;102048.88;5072145;28;20056;-44
2024/01/26 08:38:09;;;;;;;18.95;3.72;;;;;;;13.33;84.09;102030.91;5071905;28;20036;-46
2024/01/26 08:40:34;;;;;;;22.02;3.40;;;;;;;13.27;84.56;102033.41;5072778;28;20082;-47
2024/01/26 08:42:59;;;;;;;19.70;3.20;;;;;;;12.79;84.25;102033.19;5072540;28;20425;-45
2024/01/26 08:45:24;;;;;;;15.77;3.15;;;;;;;13.16;83.84;102036.66;5072766;28;20398;-48
2024/01/26 08:47:51;;;;;;;22.80;3.72;;;;;;;12.54;84.59;102049.16;5072018;28;20039;-46
2024/01/26 08:50:16;;;;;;;24.05;3.50;;;;;;;12.89;83.08;102053.47;5052190;28;20513;-46
2024/01/26 08:52:41;;;;;;;22.15;3.60;;;;;;;12.77;83.30;102058.44;5059417;28;20029;-47
2024/01/26 08:55:08;;;;;;;21.27;3.17;;;;;;;12.74;82.32;102079.31;5071785;28;20043;-44
2024/01/26 08:57:33;;;;;;;19.52;2.40;;;;;;;12.50;82.28;102082.19;5071949;28;20052;-46
2024/01/26 09:00:00;;;;;;;14.75;2.53;;;;;;;12.84;80.25;102088.25;5072330;28;20117;-45
2024/01/26 09:02:25;;;;;;;12.43;2.05;;;;;;;12.82;77.11;102088.22;5072189;28;20033;-46
2024/01/26 09:04:53;;;;;;;9.32;1.52;;;;;;;12.55;75.92;102080.59;5071515;28;20043;-45
2024/01/26 09:07:21;;;;;;;15.75;1.90;;;;;;;12.96;75.61;102076.34;5071370;28;20120;-44
2024/01/26 09:09:46;;;;;;;11.65;1.83;;;;;;;12.64;74.55;102077.31;5070496;28;20123;-44
2024/01/26 09:12:12;;;;;;;10.02;1.95;;;;;;;12.86;76.30;102089.19;5071636;28;20036;-45
2024/01/26 09:14:37;;;;;;;14.18;1.85;;;;;;;12.65;76.65;102113.09;5071455;28;20032;-44
2024/01/26 09:17:03;;;;;;;15.32;2.10;;;;;;;12.87;76.99;102124.94;5071211;28;20048;-45
2024/01/26 09:19:28;;;;;;;15.73;1.90;;;;;;;12.55;76.05;102126.81;5072119;28;20089;-46
2024/01/26 09:21:53;;;;;;;12.80;2.10;;;;;;;13.08;75.39;102137.66;5071245;28;20566;-44
2024/01/26 09:24:19;;;;;;;19.92;2.08;;;;;;;12.45;72.71;102148.31;5073509;28;20035;-48
2024/01/26 09:26:44;;;;;;;14.40;1.90;;;;;;;13.02;71.25;102159.34;5075104;28;20033;-45
2024/01/26 09:29:10;;;;;;;11.40;1.65;;;;;;;12.33;68.57;102164.56;5073723;28;20040;-45
2024/01/26 09:31:35;;;;;;;13.60;1.40;;;;;;;11.99;65.90;102183.69;5071548;28;20031;-48
2024/01/26 09:34:00;;;;;;;7.30;1.20;;;;;;;11.80;64.17;102189.22;5071070;28;20111;-46
2024/01/26 09:36:26;;;;;;;14.95;2.10;;;;;;;11.99;64.59;102202.00;5070856;28;20032;-48
2024/01/26 09:38:51;;;;;;;9.85;1.45;;;;;;;11.77;63.85;102203.06;5070738;28;20406;-48
2024/01/26 09:41:17;;;;;;;9.38;1.60;;;;;;;12.22;63.95;102222.66;5070996;28;20041;-45
2024/01/26 09:43:42;;;;;;;8.32;1.20;;;;;;;11.52;64.43;102229.28;5071296;28;20036;-45
2024/01/26 09:46:08;;;;;;;8.32;1.30;;;;;;;11.73;63.52;102253.47;5069909;28;20118;-44
2024/01/26 09:48:34;;;;;;;9.63;1.88;;;;;;;11.62;62.88;102253.94;5069366;28;20407;-45
2024/01/26 09:51:00;;;;;;;6.78;1.35;;;;;;;11.68;63.07;102268.09;5070644;28;20510;-46
2024/01/26 09:53:26;;;;;;;7.60;1.48;;;;;;;11.76;62.84;102273.59;5071087;28;20100;-47
2024/01/26 09:55:52;;;;;;;8.68;1.50;;;;;;;11.91;62.07;102281.00;5070740;28;20040;-45
2024/01/26 09:58:17;;;;;;;9.60;1.70;;;;;;;12.14;62.36;102286.06;5070836;28;20170;-47
2024/01/26 10:00:45;;;;;;;17.05;1.90;;;;;;;12.15;62.15;102302.63;5070933;28;20047;-44
2024/01/26 10:03:11;;;;;;;9.95;1.40;;;;;;;12.06;61.82;102308.50;5070131;28;20033;-47
2024/01/26 10:05:37;;;;;;;12.82;1.45;;;;;;;11.90;61.60;102318.41;5070313;28;20367;-44
2024/01/26 10:08:10;;;;;;;10.90;2.03;;;;;;;11.74;61.15;102325.78;5069522;28;20044;-46
2024/01/26 10:10:36;;;;;;;11.75;1.60;;;;;;;11.62;61.39;102329.69;5070128;28;20032;-49
2024/01/26 10:13:04;;;;;;;8.98;1.58;;;;;;;11.79;61.09;102339.88;5070093;28;20197;-44
2024/01/26 10:15:29;;;;;;;8.52;1.83;;;;;;;12.05;60.16;102337.19;5070333;28;20063;-45
2024/01/26 10:17:55;;;;;;;10.75;1.60;;;;;;;11.65;60.96;102353.28;5069911;28;20083;-47
2024/01/26 10:20:20;;;;;;;13.52;1.70;;;;;;;11.74;60.35;102379.78;5070545;28;20024;-45
2024/01/26 10:22:46;;;;;;;10.05;2.10;;;;;;;11.81;60.13;102380.84;5071080;28;20056;-47
2024/01/26 10:25:13;;;;;;;11.32;1.55;;;;;;;11.72;59.57;102397.97;5068915;28;20048;-44
2024/01/26 10:27:39;;;;;;;11.10;1.83;;;;;;;11.80;59.33;102398.25;5069303;28;20040;-44
2024/01/26 10:30:05;;;;;;;10.40;1.73;;;;;;;11.45;59.07;102404.00;5069405;28;20036;-45
2024/01/26 10:32:32;;;;;;;8.63;1.67;;;;;;;11.72;58.23;102397.06;5070047;28;20056;-47
2024/01/26 10:35:03;;;;;;;12.40;1.92;;;;;;;11.54;57.77;102422.59;5069888;28;20037;-46
2024/01/26 10:37:30;;;;;;;10.32;1.70;;;;;;;11.74;58.39;102422.47;5069678;28;20036;-46
2024/01/26 10:39:57;;;;;;;6.55;1.50;;;;;;;11.79;57.16;102427.84;5069464;28;20037;-45
2024/01/26 10:42:23;;;;;;;13.57;1.90;;;;;;;12.17;56.72;102436.91;5069928;28;20115;-45
2024/01/26 10:44:50;;;;;;;14.00;2.17;;;;;;;11.46;57.31;102437.13;5069931;28;20093;-47
2024/01/26 10:47:19;;;;;;;12.00;1.83;;;;;;;11.43;58.25;102445.72;5069066;28;20464;-45
2024/01/26 10:49:49;;;;;;;11.70;2.13;;;;;;;11.74;56.67;102445.97;5069599;28;20522;-44
2024/01/26 10:52:22;;;;;;;18.50;2.03;;;;;;;11.90;56.56;102451.69;5069222;28;20059;-46
2024/01/26 10:54:49;;;;;;;18.80;2.05;;;;;;;11.82;56.34;102474.97;5070071;28;20040;-46
2024/01/26 10:57:16;;;;;;;11.70;1.70;;;;;;;11.57;55.96;102475.84;5068660;28;20032;-44
2024/01/26 10:59:43;;;;;;;14.65;1.98;;;;;;;11.49;56.80;102484.22;5069410;28;20048;-48
2024/01/26 11:02:13;;;;;;;14.45;1.90;;;;;;;11.75;57.28;102496.50;5069056;28;20495;-45
2024/01/26 11:04:44;;;;;;;13.80;1.83;;;;;;;11.88;57.78;102503.06;5069697;28;20039;-46
2024/01/26 11:07:10;;;;;;;11.60;1.77;;;;;;;11.90;56.47;102522.25;5067148;28;20039;-45
2024/01/26 11:09:41;;;;;;;11.93;1.80;;;;;;;11.87;56.28;102522.16;5069368;28;20086;-47
2024/01/26 11:12:21;;;;;;;12.10;2.15;;;;;;;12.04;56.45;102537.59;5069281;28;20063;-47
2024/01/26 11:15:01;;;;;;;14.15;2.13;;;;;;;11.61;57.47;102545.63;5069822;28;20037;-47
2024/01/26 11:17:26;;;;;;;8.95;1.60;;;;;;;11.61;58.08;102524.72;5049192;28;20033;-45